EDDS Airport Information

Runway Information
Runway 07 Length 10974 ft width 148 ft
Elevation 1267 ft Threshold 984 ft Heading 72
Runway 25 Length 10974 ft Width 148 ft
Elevation 1181 ft Threshold ft Heading 252
Airport Frequencies
Type ATIS Name ATIS Frequency 126.125 MHZ
Type CLD Name CLNC DEL Frequency 121.9 MHZ
Type DIR Name DIR Frequency 119.85 MHZ
Type GND Name GND Frequency 118.6 MHZ
Type INFO Name LANGEN INF Frequency 128.95 MHZ
Type MISC Name DEICING Frequency 136.825 MHZ
Type PTD Name BASE OPS P Frequency 31.8 MHZ
Type RDR Name LANGEN RAD Frequency 119.2 MHZ
Type RMP Name APRON Frequency 121.7 MHZ
Type TWR Name TWR Frequency 118.8 MHZ
Airport Navaids
Type VOR-DME Name Luburg Frequency 109200 KHZ
Type NDB Name Stuttgart Frequency 306 KHZ
Type DME Name Stuttgart Frequency 115450 KHZ
Type NDB Name Stuttgart Frequency 384 KHZ
Airport Weather Information & NOTAM
ADDS - METARS form results

(1101 UTC 07 February 2023)
Data provider http://aviationweather.gov/metar/data/
 
METAR text: EDDS 071050Z AUTO 07007KT CAVOK 00/M06 Q1036 NOSIG
Conditions at: EDDS (STUTTGART/ECHTER, DE) observed 1050 UTC 07 February 2023
Temperature: 0.0°C (32°F)
Dewpoint: -6.0°C (21°F) [RH = 64%]
Pressure (altimeter): 30.59 inches Hg (1036.0 mb)
Winds: from the ENE (70 degrees) at 8 MPH (7 knots; 3.6 m/s)
Visibility: 6 or more miles (10+ km)
Ceiling: ceiling and visibility are OK
Clouds: unknown
Weather: no significant weather observed at this time

METAR text: EDDS 071020Z AUTO 09009KT CAVOK 00/M05 Q1036
Conditions at: EDDS (STUTTGART/ECHTER, DE) observed 1020 UTC 07 February 2023
Temperature: 0.0°C (32°F)
Dewpoint: -5.0°C (23°F) [RH = 69%]
Pressure (altimeter): 30.59 inches Hg (1036.0 mb)
Winds: from the E (90 degrees) at 10 MPH (9 knots; 4.6 m/s)
Visibility: 6 or more miles (10+ km)
Ceiling: ceiling and visibility are OK
Clouds: unknown
Weather: no significant weather observed at this time

Forecast for: EDDS (STUTTGART/ECHTER, DE)
Text: TAF EDDS 070500Z 0706/0806 07008KT CAVOK
Forecast period: 0600 UTC 07 February 2023 to 0600 UTC 08 February 2023
Forecast type: FROM: standard forecast or significant change
Winds: from the ENE (70 degrees) at 9 MPH (8 knots; 4.1 m/s)
Visibility: 6 or more miles (10+ km)
Ceiling: unknown
Clouds: missing
Weather: NSW  (no significant weather)